Date,TemperatureHighF,TemperatureAvgF,TemperatureLowF,DewpointHighF,DewpointAvgF,DewpointLowF,HumidityHigh,HumidityAvg,HumidityLow,PressureMaxIn,PressureMinIn,WindSpeedMaxMPH,WindSpeedAvgMPH,GustSpeedMaxMPH,PrecipitationSumIn
2013-3-6,30.0,17.2,9.0,11.0,6.6,2.0,77,64,42,29.84,29.79,5,3,7,0.00
2013-3-7,27.0,18.0,-1.0,17.0,9.6,-5.0,86,69,53,29.79,29.34,15,4,27,0.00
2013-3-8,40.0,29.1,18.0,26.0,16.4,10.0,72,58,46,29.57,29.40,10,5,20,0.00
2013-3-9,39.0,28.3,20.0,20.0,15.4,12.0,77,58,41,29.94,29.57,8,4,15,0.00
2013-3-10,29.0,23.1,19.0,23.0,17.5,10.0,96,79,62,30.22,29.94,11,5,15,0.00
2013-3-11,20.0,16.3,9.0,15.0,11.3,6.0,91,80,61,30.46,30.21,11,6,17,0.00
2013-3-12,18.0,6.6,-3.0,6.0,-1.1,-9.0,89,71,48,30.46,30.23,6,3,9,0.00
2013-3-13,14.0,1.0,-9.0,-5.0,-13.1,-18.0,69,51,30,30.24,30.02,12,5,19,0.00
2013-3-14,10.0,-0.4,-16.0,-9.0,-14.0,-23.0,75,52,39,30.04,29.98,13,7,30,0.00
2013-3-15,11.0,4.8,-1.0,-7.0,-12.0,-15.0,54,45,37,30.03,29.82,13,8,35,0.00
2013-3-16,15.0,4.8,-12.0,-3.0,-8.3,-19.0,71,54,42,30.07,29.85,9,4,26,0.00
2013-3-17,18.0,3.4,-7.0,-1.0,-8.9,-14.0,70,57,38,30.17,30.05,5,3,7,0.00
2013-3-18,18.0,5.6,-5.0,7.0,-4.0,-12.0,88,65,41,30.05,29.89,6,4,9,0.00
2013-3-19,11.0,2.9,-7.0,-1.0,-7.0,-15.0,83,63,41,29.98,29.92,12,5,19,0.00
2013-3-20,13.0,1.6,-8.0,-2.0,-9.7,-15.0,78,59,37,29.92,29.81,5,3,8,0.00
2013-3-21,19.0,5.3,-6.0,-2.0,-7.5,-12.0,78,56,35,30.02,29.86,7,4,14,0.00
2013-3-22,26.0,17.0,5.0,17.0,5.0,-5.0,73,58,47,29.93,29.59,13,7,27,0.00
2013-3-23,25.0,2.0,-12.0,18.0,-3.7,-17.0,86,76,61,29.94,29.59,22,9,32,0.00
2013-3-24,15.0,1.6,-13.0,4.0,-5.0,-18.0,83,73,59,29.92,29.63,13,5,21,0.00
2013-3-25,8.0,2.3,-2.0,-1.0,-3.4,-8.0,84,75,63,29.65,29.49,15,9,24,0.00
2013-3-26,4.0,-3.1,-13.0,-8.0,-12.6,-21.0,80,64,40,30.06,29.65,14,6,24,0.00
2013-3-27,12.0,-5.7,-20.0,-7.0,-16.7,-25.0,75,59,40,30.10,30.02,5,4,9,0.00
2013-3-28,27.0,9.7,-9.0,11.0,-3.9,-18.0,72,54,39,30.02,29.82,6,3,10,0.00
2013-3-29,39.0,24.7,14.0,17.0,10.5,2.0,70,55,36,29.85,29.79,6,3,8,0.00
2013-3-30,40.0,26.9,17.0,20.0,13.7,-99.9,72,59,42,30.12,29.84,6,3,9,0.00
2013-3-31,40.0,28.5,20.0,22.0,16.5,12.0,81,61,41,30.16,30.07,6,3,10,0.00